sensor_id;sensor_type;location;lat;lon;timestamp;temperature;humidity
19031;DHT22;9648;51.130;13.978;2023-05-02T00:01:40;11.50;99.90
19031;DHT22;9648;51.130;13.978;2023-05-02T00:04:07;11.50;99.90
19031;DHT22;9648;51.130;13.978;2023-05-02T00:06:34;11.50;99.90
19031;DHT22;9648;51.130;13.978;2023-05-02T00:09:00;11.50;99.90
19031;DHT22;9648;51.130;13.978;2023-05-02T00:11:27;11.50;99.90
19031;DHT22;9648;51.130;13.978;2023-05-02T00:13:54;11.50;99.90
19031;DHT22;9648;51.130;13.978;2023-05-02T00:16:22;11.40;99.90
19031;DHT22;9648;51.130;13.978;2023-05-02T00:18:49;11.40;99.90
19031;DHT22;9648;51.130;13.978;2023-05-02T00:21:16;11.40;99.90
19031;DHT22;9648;51.130;13.978;2023-05-02T00:23:42;11.40;99.90
19031;DHT22;9648;51.130;13.978;2023-05-02T00:26:10;11.40;99.90
19031;DHT22;9648;51.130;13.978;2023-05-02T00:28:36;11.40;99.90
19031;DHT22;9648;51.130;13.978;2023-05-02T00:31:04;11.40;99.90
19031;DHT22;9648;51.130;13.978;2023-05-02T00:33:32;11.40;99.90
19031;DHT22;9648;51.130;13.978;2023-05-02T00:35:59;11.30;99.90
19031;DHT22;9648;51.130;13.978;2023-05-02T00:38:26;11.30;99.90
19031;DHT22;9648;51.130;13.978;2023-05-02T00:40:53;11.30;99.90
19031;DHT22;9648;51.130;13.978;2023-05-02T00:43:19;11.30;99.90
19031;DHT22;9648;51.130;13.978;2023-05-02T00:45:46;11.40;99.90
19031;DHT22;9648;51.130;13.978;2023-05-02T00:48:13;11.40;99.90
19031;DHT22;9648;51.130;13.978;2023-05-02T00:50:43;11.40;99.90
19031;DHT22;9648;51.130;13.978;2023-05-02T00:53:10;11.40;99.90
19031;DHT22;9648;51.130;13.978;2023-05-02T00:55:37;11.40;99.90
19031;DHT22;9648;51.130;13.978;2023-05-02T00:58:07;11.40;99.90
19031;DHT22;9648;51.130;13.978;2023-05-02T01:00:42;11.40;99.90
19031;DHT22;9648;51.130;13.978;2023-05-02T01:03:16;11.40;99.90
19031;DHT22;9648;51.130;13.978;2023-05-02T01:06:02;11.30;99.90
19031;DHT22;9648;51.130;13.978;2023-05-02T01:08:35;11.40;99.90
19031;DHT22;9648;51.130;13.978;2023-05-02T01:11:12;11.40;99.90
19031;DHT22;9648;51.130;13.978;2023-05-02T01:13:42;11.30;99.90
19031;DHT22;9648;51.130;13.978;2023-05-02T01:16:11;11.30;99.90
19031;DHT22;9648;51.130;13.978;2023-05-02T01:18:40;11.30;99.90
19031;DHT22;9648;51.130;13.978;2023-05-02T01:21:10;11.30;99.90
19031;DHT22;9648;51.130;13.978;2023-05-02T01:23:42;11.30;99.90
19031;DHT22;9648;51.130;13.978;2023-05-02T01:26:18;11.30;99.90
19031;DHT22;9648;51.130;13.978;2023-05-02T01:28:58;11.30;99.90
19031;DHT22;9648;51.130;13.978;2023-05-02T01:31:26;11.30;99.90
19031;DHT22;9648;51.130;13.978;2023-05-02T01:33:55;11.20;99.90
19031;DHT22;9648;51.130;13.978;2023-05-02T01:36:27;11.20;99.90
19031;DHT22;9648;51.130;13.978;2023-05-02T01:38:56;11.20;99.90
19031;DHT22;9648;51.130;13.978;2023-05-02T01:41:25;11.20;99.90
19031;DHT22;9648;51.130;13.978;2023-05-02T01:43:53;11.20;99.90
19031;DHT22;9648;51.130;13.978;2023-05-02T01:46:24;11.20;99.90
19031;DHT22;9648;51.130;13.978;2023-05-02T01:48:52;11.20;99.90
19031;DHT22;9648;51.130;13.978;2023-05-02T01:51:20;11.20;99.90
19031;DHT22;9648;51.130;13.978;2023-05-02T01:53:50;11.20;99.90
19031;DHT22;9648;51.130;13.978;2023-05-02T01:56:17;11.20;99.90
19031;DHT22;9648;51.130;13.978;2023-05-02T01:58:45;11.20;99.90
19031;DHT22;9648;51.130;13.978;2023-05-02T02:01:13;11.20;99.90
19031;DHT22;9648;51.130;13.978;2023-05-02T02:03:43;11.20;99.90
19031;DHT22;9648;51.130;13.978;2023-05-02T02:06:11;11.20;99.90
19031;DHT22;9648;51.130;13.978;2023-05-02T02:08:39;11.10;99.90
19031;DHT22;9648;51.130;13.978;2023-05-02T02:11:08;11.10;99.90
19031;DHT22;9648;51.130;13.978;2023-05-02T02:13:40;11.10;99.90
19031;DHT22;9648;51.130;13.978;2023-05-02T02:16:11;11.10;99.90
19031;DHT22;9648;51.130;13.978;2023-05-02T02:18:40;11.10;99.90
19031;DHT22;9648;51.130;13.978;2023-05-02T02:21:10;11.00;99.90
19031;DHT22;9648;51.130;13.978;2023-05-02T02:23:38;11.00;99.90
19031;DHT22;9648;51.130;13.978;2023-05-02T02:26:08;11.00;99.90
19031;DHT22;9648;51.130;13.978;2023-05-02T02:28:35;10.90;99.90
19031;DHT22;9648;51.130;13.978;2023-05-02T02:31:02;10.90;99.90
19031;DHT22;9648;51.130;13.978;2023-05-02T02:33:30;10.90;99.90
19031;DHT22;9648;51.130;13.978;2023-05-02T02:36:01;10.90;99.90
19031;DHT22;9648;51.130;13.978;2023-05-02T02:38:37;10.80;99.90
19031;DHT22;9648;51.130;13.978;2023-05-02T02:41:12;10.80;99.90
19031;DHT22;9648;51.130;13.978;2023-05-02T02:43:47;10.80;99.90
19031;DHT22;9648;51.130;13.978;2023-05-02T02:46:26;10.70;99.90
19031;DHT22;9648;51.130;13.978;2023-05-02T02:48:59;10.70;99.90
19031;DHT22;9648;51.130;13.978;2023-05-02T02:51:35;10.70;99.90
19031;DHT22;9648;51.130;13.978;2023-05-02T02:54:11;10.70;99.90
19031;DHT22;9648;51.130;13.978;2023-05-02T02:56:40;10.70;99.90
19031;DHT22;9648;51.130;13.978;2023-05-02T02:59:13;10.70;99.90
19031;DHT22;9648;51.130;13.978;2023-05-02T03:01:42;10.70;99.90
19031;DHT22;9648;51.130;13.978;2023-05-02T03:04:12;10.60;99.90
19031;DHT22;9648;51.130;13.978;2023-05-02T03:06:41;10.60;99.90
19031;DHT22;9648;51.130;13.978;2023-05-02T03:09:15;10.60;99.90
19031;DHT22;9648;51.130;13.978;2023-05-02T03:11:43;10.60;99.90
19031;DHT22;9648;51.130;13.978;2023-05-02T03:14:10;10.50;99.90
19031;DHT22;9648;51.130;13.978;2023-05-02T03:16:38;10.60;99.90
19031;DHT22;9648;51.130;13.978;2023-05-02T03:19:06;10.60;99.90
19031;DHT22;9648;51.130;13.978;2023-05-02T03:21:34;10.60;99.90
19031;DHT22;9648;51.130;13.978;2023-05-02T03:24:03;10.60;99.90
19031;DHT22;9648;51.130;13.978;2023-05-02T03:26:31;10.60;99.90
19031;DHT22;9648;51.130;13.978;2023-05-02T03:28:58;10.50;99.90
19031;DHT22;9648;51.130;13.978;2023-05-02T03:31:25;10.50;99.90
19031;DHT22;9648;51.130;13.978;2023-05-02T03:33:52;10.50;99.90
19031;DHT22;9648;51.130;13.978;2023-05-02T03:36:19;10.50;99.90
19031;DHT22;9648;51.130;13.978;2023-05-02T03:38:45;10.60;99.90
19031;DHT22;9648;51.130;13.978;2023-05-02T03:41:12;10.70;99.90
19031;DHT22;9648;51.130;13.978;2023-05-02T03:43:40;10.80;99.90
19031;DHT22;9648;51.130;13.978;2023-05-02T03:46:08;10.80;99.90
19031;DHT22;9648;51.130;13.978;2023-05-02T03:48:36;10.80;99.90
19031;DHT22;9648;51.130;13.978;2023-05-02T03:51:04;10.80;99.90
19031;DHT22;9648;51.130;13.978;2023-05-02T03:53:32;10.90;99.90
19031;DHT22;9648;51.130;13.978;2023-05-02T03:55:59;10.90;99.90
19031;DHT22;9648;51.130;13.978;2023-05-02T03:58:26;10.90;99.90
19031;DHT22;9648;51.130;13.978;2023-05-02T04:00:54;10.80;99.90
19031;DHT22;9648;51.130;13.978;2023-05-02T04:03:21;10.90;99.90
19031;DHT22;9648;51.130;13.978;2023-05-02T04:05:48;10.90;99.90
19031;DHT22;9648;51.130;13.978;2023-05-02T04:08:16;10.90;99.90
19031;DHT22;9648;51.130;13.978;2023-05-02T04:10:43;10.90;99.90
19031;DHT22;9648;51.130;13.978;2023-05-02T04:13:09;10.90;99.90
19031;DHT22;9648;51.130;13.978;2023-05-02T04:15:36;10.90;99.90
19031;DHT22;9648;51.130;13.978;2023-05-02T04:18:04;10.80;99.90
19031;DHT22;9648;51.130;13.978;2023-05-02T04:20:32;10.80;99.90
19031;DHT22;9648;51.130;13.978;2023-05-02T04:22:58;10.80;99.90
19031;DHT22;9648;51.130;13.978;2023-05-02T04:25:26;10.80;99.90
19031;DHT22;9648;51.130;13.978;2023-05-02T04:27:53;10.80;99.90
19031;DHT22;9648;51.130;13.978;2023-05-02T04:30:20;10.80;99.90
19031;DHT22;9648;51.130;13.978;2023-05-02T04:32:47;10.80;99.90
19031;DHT22;9648;51.130;13.978;2023-05-02T04:35:15;10.80;99.90
19031;DHT22;9648;51.130;13.978;2023-05-02T04:37:42;10.80;99.90
19031;DHT22;9648;51.130;13.978;2023-05-02T04:40:10;10.80;99.90
19031;DHT22;9648;51.130;13.978;2023-05-02T04:42:37;10.80;99.90
19031;DHT22;9648;51.130;13.978;2023-05-02T04:45:04;10.80;99.90
19031;DHT22;9648;51.130;13.978;2023-05-02T04:47:31;10.90;99.90
19031;DHT22;9648;51.130;13.978;2023-05-02T04:49:58;10.80;99.90
19031;DHT22;9648;51.130;13.978;2023-05-02T04:52:27;10.80;99.90
19031;DHT22;9648;51.130;13.978;2023-05-02T04:54:53;10.80;99.90
19031;DHT22;9648;51.130;13.978;2023-05-02T04:57:21;10.80;99.90
19031;DHT22;9648;51.130;13.978;2023-05-02T04:59:48;10.80;99.90
19031;DHT22;9648;51.130;13.978;2023-05-02T05:02:15;10.80;99.90
19031;DHT22;9648;51.130;13.978;2023-05-02T05:04:42;10.80;99.90
19031;DHT22;9648;51.130;13.978;2023-05-02T05:07:10;10.80;99.90
19031;DHT22;9648;51.130;13.978;2023-05-02T05:09:47;10.90;99.90
19031;DHT22;9648;51.130;13.978;2023-05-02T05:12:15;10.90;99.90
19031;DHT22;9648;51.130;13.978;2023-05-02T05:14:43;10.90;99.90
19031;DHT22;9648;51.130;13.978;2023-05-02T05:17:10;11.00;99.90
19031;DHT22;9648;51.130;13.978;2023-05-02T05:19:37;11.00;99.90
19031;DHT22;9648;51.130;13.978;2023-05-02T05:22:04;11.00;99.90
19031;DHT22;9648;51.130;13.978;2023-05-02T05:24:30;11.10;99.90
19031;DHT22;9648;51.130;13.978;2023-05-02T05:26:58;11.20;99.90
19031;DHT22;9648;51.130;13.978;2023-05-02T05:29:25;11.30;99.90
19031;DHT22;9648;51.130;13.978;2023-05-02T05:31:52;11.40;99.90
19031;DHT22;9648;51.130;13.978;2023-05-02T05:34:18;11.40;99.90
19031;DHT22;9648;51.130;13.978;2023-05-02T05:37:04;11.50;99.90
19031;DHT22;9648;51.130;13.978;2023-05-02T05:39:50;11.50;99.90
19031;DHT22;9648;51.130;13.978;2023-05-02T05:42:37;11.50;99.90
19031;DHT22;9648;51.130;13.978;2023-05-02T05:45:07;11.50;99.90
19031;DHT22;9648;51.130;13.978;2023-05-02T05:47:34;11.60;99.90
19031;DHT22;9648;51.130;13.978;2023-05-02T05:50:01;11.60;99.90
19031;DHT22;9648;51.130;13.978;2023-05-02T05:52:28;11.60;99.90
19031;DHT22;9648;51.130;13.978;2023-05-02T05:54:55;11.60;99.90
19031;DHT22;9648;51.130;13.978;2023-05-02T05:57:22;11.60;99.90
19031;DHT22;9648;51.130;13.978;2023-05-02T05:59:50;11.70;99.90
19031;DHT22;9648;51.130;13.978;2023-05-02T06:02:17;11.70;99.90
19031;DHT22;9648;51.130;13.978;2023-05-02T06:04:45;11.70;99.90
19031;DHT22;9648;51.130;13.978;2023-05-02T06:07:14;11.80;99.90
19031;DHT22;9648;51.130;13.978;2023-05-02T06:09:41;11.90;99.90
19031;DHT22;9648;51.130;13.978;2023-05-02T06:12:08;12.00;99.90
19031;DHT22;9648;51.130;13.978;2023-05-02T06:14:35;12.00;99.90
19031;DHT22;9648;51.130;13.978;2023-05-02T06:17:03;12.00;99.90
19031;DHT22;9648;51.130;13.978;2023-05-02T06:19:29;12.10;99.90
19031;DHT22;9648;51.130;13.978;2023-05-02T06:21:56;12.10;99.90
19031;DHT22;9648;51.130;13.978;2023-05-02T06:24:23;12.20;99.90
19031;DHT22;9648;51.130;13.978;2023-05-02T06:26:50;12.20;99.90
19031;DHT22;9648;51.130;13.978;2023-05-02T06:29:17;12.30;99.90
19031;DHT22;9648;51.130;13.978;2023-05-02T06:31:44;12.40;99.90
19031;DHT22;9648;51.130;13.978;2023-05-02T06:34:12;12.50;99.90
19031;DHT22;9648;51.130;13.978;2023-05-02T06:36:38;12.50;99.90
19031;DHT22;9648;51.130;13.978;2023-05-02T06:39:05;12.60;99.90
19031;DHT22;9648;51.130;13.978;2023-05-02T06:41:32;12.60;99.90
19031;DHT22;9648;51.130;13.978;2023-05-02T06:43:59;12.70;99.90
19031;DHT22;9648;51.130;13.978;2023-05-02T06:46:28;12.80;99.90
19031;DHT22;9648;51.130;13.978;2023-05-02T06:48:55;13.00;99.90
19031;DHT22;9648;51.130;13.978;2023-05-02T06:51:24;13.00;99.90
19031;DHT22;9648;51.130;13.978;2023-05-02T06:53:53;13.10;99.90
19031;DHT22;9648;51.130;13.978;2023-05-02T06:56:20;13.20;99.90
19031;DHT22;9648;51.130;13.978;2023-05-02T06:58:46;13.10;99.90
19031;DHT22;9648;51.130;13.978;2023-05-02T07:01:13;13.20;99.90
19031;DHT22;9648;51.130;13.978;2023-05-02T07:03:43;13.20;99.90
19031;DHT22;9648;51.130;13.978;2023-05-02T07:06:10;13.10;99.90
19031;DHT22;9648;51.130;13.978;2023-05-02T07:08:38;13.00;99.90
19031;DHT22;9648;51.130;13.978;2023-05-02T07:11:05;13.00;99.90
19031;DHT22;9648;51.130;13.978;2023-05-02T07:13:31;13.00;99.90
19031;DHT22;9648;51.130;13.978;2023-05-02T07:15:58;12.90;99.90
19031;DHT22;9648;51.130;13.978;2023-05-02T07:18:25;12.90;99.90
19031;DHT22;9648;51.130;13.978;2023-05-02T07:20:52;12.90;99.90
19031;DHT22;9648;51.130;13.978;2023-05-02T07:23:19;13.00;99.90
19031;DHT22;9648;51.130;13.978;2023-05-02T07:25:47;13.20;99.90
19031;DHT22;9648;51.130;13.978;2023-05-02T07:28:14;13.30;99.90
19031;DHT22;9648;51.130;13.978;2023-05-02T07:30:41;13.40;99.90
19031;DHT22;9648;51.130;13.978;2023-05-02T07:33:08;13.50;99.90
19031;DHT22;9648;51.130;13.978;2023-05-02T07:35:35;13.40;99.90
19031;DHT22;9648;51.130;13.978;2023-05-02T07:38:02;13.40;99.90
19031;DHT22;9648;51.130;13.978;2023-05-02T07:40:29;13.40;99.90
19031;DHT22;9648;51.130;13.978;2023-05-02T07:42:57;13.40;99.90
19031;DHT22;9648;51.130;13.978;2023-05-02T07:45:24;13.50;99.90
19031;DHT22;9648;51.130;13.978;2023-05-02T07:47:51;13.50;99.90
19031;DHT22;9648;51.130;13.978;2023-05-02T07:50:17;13.50;99.90
19031;DHT22;9648;51.130;13.978;2023-05-02T07:52:44;13.40;99.90
19031;DHT22;9648;51.130;13.978;2023-05-02T07:55:11;13.30;99.90
19031;DHT22;9648;51.130;13.978;2023-05-02T07:57:38;13.40;99.90
19031;DHT22;9648;51.130;13.978;2023-05-02T08:00:07;13.40;99.90
19031;DHT22;9648;51.130;13.978;2023-05-02T08:02:34;13.30;99.90
19031;DHT22;9648;51.130;13.978;2023-05-02T08:05:02;13.30;99.90
19031;DHT22;9648;51.130;13.978;2023-05-02T08:07:28;13.40;99.90
19031;DHT22;9648;51.130;13.978;2023-05-02T08:09:55;13.50;99.90
19031;DHT22;9648;51.130;13.978;2023-05-02T08:12:22;13.50;99.90
19031;DHT22;9648;51.130;13.978;2023-05-02T08:14:49;13.50;99.90
19031;DHT22;9648;51.130;13.978;2023-05-02T08:17:17;13.40;99.90
19031;DHT22;9648;51.130;13.978;2023-05-02T08:19:44;13.20;99.90
19031;DHT22;9648;51.130;13.978;2023-05-02T08:22:11;13.20;99.90
19031;DHT22;9648;51.130;13.978;2023-05-02T08:24:38;13.10;99.90
19031;DHT22;9648;51.130;13.978;2023-05-02T08:27:04;13.10;99.90
19031;DHT22;9648;51.130;13.978;2023-05-02T08:29:32;13.10;99.90
19031;DHT22;9648;51.130;13.978;2023-05-02T08:31:59;13.10;99.90
19031;DHT22;9648;51.130;13.978;2023-05-02T08:34:27;13.00;99.90
19031;DHT22;9648;51.130;13.978;2023-05-02T08:36:53;13.00;99.90
19031;DHT22;9648;51.130;13.978;2023-05-02T08:39:20;13.00;99.90
19031;DHT22;9648;51.130;13.978;2023-05-02T08:41:47;13.00;99.90
19031;DHT22;9648;51.130;13.978;2023-05-02T08:44:14;13.00;99.90
19031;DHT22;9648;51.130;13.978;2023-05-02T08:46:41;13.10;99.90
19031;DHT22;9648;51.130;13.978;2023-05-02T08:49:09;13.20;99.90
19031;DHT22;9648;51.130;13.978;2023-05-02T08:51:39;13.40;99.90
19031;DHT22;9648;51.130;13.978;2023-05-02T08:54:08;13.80;99.90
19031;DHT22;9648;51.130;13.978;2023-05-02T08:56:36;14.10;99.90
19031;DHT22;9648;51.130;13.978;2023-05-02T08:59:03;14.30;99.90
19031;DHT22;9648;51.130;13.978;2023-05-02T09:01:34;14.40;99.90
19031;DHT22;9648;51.130;13.978;2023-05-02T09:04:02;14.40;99.90
19031;DHT22;9648;51.130;13.978;2023-05-02T09:06:29;14.50;99.90
19031;DHT22;9648;51.130;13.978;2023-05-02T09:08:59;14.50;99.90
19031;DHT22;9648;51.130;13.978;2023-05-02T09:11:26;14.60;99.90
19031;DHT22;9648;51.130;13.978;2023-05-02T09:13:53;14.50;99.90
19031;DHT22;9648;51.130;13.978;2023-05-02T09:16:22;14.50;99.90
19031;DHT22;9648;51.130;13.978;2023-05-02T09:18:51;14.50;99.90
19031;DHT22;9648;51.130;13.978;2023-05-02T09:21:20;14.60;99.90
19031;DHT22;9648;51.130;13.978;2023-05-02T09:23:49;14.80;99.90
19031;DHT22;9648;51.130;13.978;2023-05-02T09:26:19;15.00;99.90
19031;DHT22;9648;51.130;13.978;2023-05-02T09:28:47;15.00;99.90
19031;DHT22;9648;51.130;13.978;2023-05-02T09:31:16;15.10;99.90
19031;DHT22;9648;51.130;13.978;2023-05-02T09:33:43;15.30;99.90
19031;DHT22;9648;51.130;13.978;2023-05-02T09:36:12;15.40;99.90
19031;DHT22;9648;51.130;13.978;2023-05-02T09:38:40;15.40;99.90
19031;DHT22;9648;51.130;13.978;2023-05-02T09:41:07;15.70;99.90
19031;DHT22;9648;51.130;13.978;2023-05-02T09:43:36;15.80;99.90
19031;DHT22;9648;51.130;13.978;2023-05-02T09:46:04;15.70;99.90
19031;DHT22;9648;51.130;13.978;2023-05-02T09:48:32;15.60;99.90
19031;DHT22;9648;51.130;13.978;2023-05-02T09:50:59;15.60;99.90
19031;DHT22;9648;51.130;13.978;2023-05-02T09:53:26;15.60;99.90
19031;DHT22;9648;51.130;13.978;2023-05-02T09:55:59;15.50;99.90
19031;DHT22;9648;51.130;13.978;2023-05-02T09:58:25;15.40;99.90
19031;DHT22;9648;51.130;13.978;2023-05-02T10:00:54;15.40;99.90
19031;DHT22;9648;51.130;13.978;2023-05-02T10:03:22;15.30;99.90
19031;DHT22;9648;51.130;13.978;2023-05-02T10:05:50;15.30;99.90
19031;DHT22;9648;51.130;13.978;2023-05-02T10:08:19;15.20;99.90
19031;DHT22;9648;51.130;13.978;2023-05-02T10:10:50;15.30;99.90
19031;DHT22;9648;51.130;13.978;2023-05-02T10:13:21;15.20;99.90
19031;DHT22;9648;51.130;13.978;2023-05-02T10:15:55;15.20;99.90
19031;DHT22;9648;51.130;13.978;2023-05-02T10:18:28;15.20;99.90
19031;DHT22;9648;51.130;13.978;2023-05-02T10:20:57;15.30;99.90
19031;DHT22;9648;51.130;13.978;2023-05-02T10:23:28;15.50;99.90
19031;DHT22;9648;51.130;13.978;2023-05-02T10:25:57;15.60;99.90
19031;DHT22;9648;51.130;13.978;2023-05-02T10:28:25;15.40;99.90
19031;DHT22;9648;51.130;13.978;2023-05-02T10:30:54;15.20;99.90
19031;DHT22;9648;51.130;13.978;2023-05-02T10:33:21;15.20;99.90
19031;DHT22;9648;51.130;13.978;2023-05-02T10:35:49;15.30;99.90
19031;DHT22;9648;51.130;13.978;2023-05-02T10:38:18;15.40;99.90
19031;DHT22;9648;51.130;13.978;2023-05-02T10:40:52;15.60;99.90
19031;DHT22;9648;51.130;13.978;2023-05-02T10:43:22;15.60;99.90
19031;DHT22;9648;51.130;13.978;2023-05-02T10:45:50;15.70;99.90
19031;DHT22;9648;51.130;13.978;2023-05-02T10:48:25;15.60;99.90
19031;DHT22;9648;51.130;13.978;2023-05-02T10:50:53;15.80;99.90
19031;DHT22;9648;51.130;13.978;2023-05-02T10:53:22;16.10;99.90
19031;DHT22;9648;51.130;13.978;2023-05-02T10:58:51;16.40;99.90
19031;DHT22;9648;51.130;13.978;2023-05-02T11:01:36;16.40;99.90
19031;DHT22;9648;51.130;13.978;2023-05-02T11:04:14;16.10;99.90
19031;DHT22;9648;51.130;13.978;2023-05-02T11:07:16;15.70;99.90
19031;DHT22;9648;51.130;13.978;2023-05-02T11:09:43;15.40;99.90
19031;DHT22;9648;51.130;13.978;2023-05-02T11:12:10;15.30;99.90
19031;DHT22;9648;51.130;13.978;2023-05-02T11:14:46;15.30;99.90
19031;DHT22;9648;51.130;13.978;2023-05-02T11:17:16;15.40;99.90
19031;DHT22;9648;51.130;13.978;2023-05-02T11:22:56;15.50;99.90
19031;DHT22;9648;51.130;13.978;2023-05-02T11:25:32;15.70;99.90
19031;DHT22;9648;51.130;13.978;2023-05-02T11:27:59;16.00;99.90
19031;DHT22;9648;51.130;13.978;2023-05-02T11:30:43;16.20;99.90
19031;DHT22;9648;51.130;13.978;2023-05-02T11:33:16;16.10;99.90
19031;DHT22;9648;51.130;13.978;2023-05-02T11:35:48;16.20;99.90
19031;DHT22;9648;51.130;13.978;2023-05-02T11:38:20;16.30;99.90
19031;DHT22;9648;51.130;13.978;2023-05-02T11:40:51;16.30;99.90
19031;DHT22;9648;51.130;13.978;2023-05-02T11:43:19;16.30;99.90
19031;DHT22;9648;51.130;13.978;2023-05-02T11:45:47;16.20;99.90
19031;DHT22;9648;51.130;13.978;2023-05-02T11:48:16;16.10;99.90
19031;DHT22;9648;51.130;13.978;2023-05-02T11:50:45;16.00;99.90
19031;DHT22;9648;51.130;13.978;2023-05-02T11:53:14;16.00;99.90
19031;DHT22;9648;51.130;13.978;2023-05-02T11:55:46;16.10;99.90
19031;DHT22;9648;51.130;13.978;2023-05-02T11:58:14;16.10;99.90
19031;DHT22;9648;51.130;13.978;2023-05-02T12:00:42;16.20;99.90
19031;DHT22;9648;51.130;13.978;2023-05-02T12:03:22;16.40;99.90
19031;DHT22;9648;51.130;13.978;2023-05-02T12:05:49;16.60;99.90
19031;DHT22;9648;51.130;13.978;2023-05-02T12:08:22;16.60;99.90
19031;DHT22;9648;51.130;13.978;2023-05-02T12:10:51;16.70;99.90
19031;DHT22;9648;51.130;13.978;2023-05-02T12:13:21;16.80;99.90
19031;DHT22;9648;51.130;13.978;2023-05-02T12:15:49;16.70;99.90
19031;DHT22;9648;51.130;13.978;2023-05-02T12:18:18;16.60;99.90
19031;DHT22;9648;51.130;13.978;2023-05-02T12:20:48;16.60;99.90
19031;DHT22;9648;51.130;13.978;2023-05-02T12:23:15;16.50;99.90
19031;DHT22;9648;51.130;13.978;2023-05-02T12:25:42;16.40;99.90
19031;DHT22;9648;51.130;13.978;2023-05-02T12:28:10;16.30;99.90
19031;DHT22;9648;51.130;13.978;2023-05-02T12:30:38;16.30;99.90
19031;DHT22;9648;51.130;13.978;2023-05-02T12:33:06;16.30;99.90
19031;DHT22;9648;51.130;13.978;2023-05-02T12:35:33;16.40;99.90
19031;DHT22;9648;51.130;13.978;2023-05-02T12:38:11;16.30;99.90
19031;DHT22;9648;51.130;13.978;2023-05-02T12:40:46;16.10;99.90
19031;DHT22;9648;51.130;13.978;2023-05-02T12:43:14;16.10;99.90
19031;DHT22;9648;51.130;13.978;2023-05-02T12:45:41;16.20;99.90
19031;DHT22;9648;51.130;13.978;2023-05-02T12:48:22;16.20;99.90
19031;DHT22;9648;51.130;13.978;2023-05-02T12:50:51;16.30;99.90
19031;DHT22;9648;51.130;13.978;2023-05-02T12:53:39;16.30;99.90
19031;DHT22;9648;51.130;13.978;2023-05-02T12:56:07;16.40;99.90
19031;DHT22;9648;51.130;13.978;2023-05-02T12:58:46;16.30;99.90
19031;DHT22;9648;51.130;13.978;2023-05-02T13:01:14;16.20;99.90
19031;DHT22;9648;51.130;13.978;2023-05-02T13:03:42;16.20;99.90
19031;DHT22;9648;51.130;13.978;2023-05-02T13:06:09;16.20;99.90
19031;DHT22;9648;51.130;13.978;2023-05-02T13:08:36;16.20;99.90
19031;DHT22;9648;51.130;13.978;2023-05-02T13:11:03;16.10;99.90
19031;DHT22;9648;51.130;13.978;2023-05-02T13:13:30;16.20;99.90
19031;DHT22;9648;51.130;13.978;2023-05-02T13:16:01;16.40;99.90
19031;DHT22;9648;51.130;13.978;2023-05-02T13:18:28;16.60;99.90
19031;DHT22;9648;51.130;13.978;2023-05-02T13:20:54;16.60;99.90
19031;DHT22;9648;51.130;13.978;2023-05-02T13:23:21;16.80;99.90
19031;DHT22;9648;51.130;13.978;2023-05-02T13:25:48;16.90;99.90
19031;DHT22;9648;51.130;13.978;2023-05-02T13:28:15;17.20;99.90
19031;DHT22;9648;51.130;13.978;2023-05-02T13:30:42;17.20;99.90
19031;DHT22;9648;51.130;13.978;2023-05-02T13:33:10;17.10;99.90
19031;DHT22;9648;51.130;13.978;2023-05-02T13:35:37;17.20;99.90
19031;DHT22;9648;51.130;13.978;2023-05-02T13:38:03;17.20;99.90
19031;DHT22;9648;51.130;13.978;2023-05-02T13:40:30;17.20;99.90
19031;DHT22;9648;51.130;13.978;2023-05-02T13:42:57;17.20;99.90
19031;DHT22;9648;51.130;13.978;2023-05-02T13:45:27;16.80;99.90
19031;DHT22;9648;51.130;13.978;2023-05-02T13:47:54;16.70;99.90
19031;DHT22;9648;51.130;13.978;2023-05-02T13:50:22;16.70;99.90
19031;DHT22;9648;51.130;13.978;2023-05-02T13:52:49;16.70;99.90
19031;DHT22;9648;51.130;13.978;2023-05-02T13:55:16;16.80;99.90
19031;DHT22;9648;51.130;13.978;2023-05-02T13:57:42;16.70;99.90
19031;DHT22;9648;51.130;13.978;2023-05-02T14:00:10;16.60;99.90
19031;DHT22;9648;51.130;13.978;2023-05-02T14:02:37;16.60;99.90
19031;DHT22;9648;51.130;13.978;2023-05-02T14:05:05;16.80;99.90
19031;DHT22;9648;51.130;13.978;2023-05-02T14:07:33;16.90;99.90
19031;DHT22;9648;51.130;13.978;2023-05-02T14:10:00;16.90;99.90
19031;DHT22;9648;51.130;13.978;2023-05-02T14:12:27;16.90;99.90
19031;DHT22;9648;51.130;13.978;2023-05-02T14:14:53;16.90;99.90
19031;DHT22;9648;51.130;13.978;2023-05-02T14:17:20;16.70;99.90
19031;DHT22;9648;51.130;13.978;2023-05-02T14:19:49;16.70;99.90
19031;DHT22;9648;51.130;13.978;2023-05-02T14:22:16;16.60;99.90
19031;DHT22;9648;51.130;13.978;2023-05-02T14:24:44;16.50;99.90
19031;DHT22;9648;51.130;13.978;2023-05-02T14:27:11;16.60;99.90
19031;DHT22;9648;51.130;13.978;2023-05-02T14:29:42;16.50;99.90
19031;DHT22;9648;51.130;13.978;2023-05-02T14:32:09;16.40;99.90
19031;DHT22;9648;51.130;13.978;2023-05-02T14:34:36;16.40;99.90
19031;DHT22;9648;51.130;13.978;2023-05-02T14:37:02;16.30;99.90
19031;DHT22;9648;51.130;13.978;2023-05-02T14:39:29;16.30;99.90
19031;DHT22;9648;51.130;13.978;2023-05-02T14:41:57;16.10;99.90
19031;DHT22;9648;51.130;13.978;2023-05-02T14:44:24;16.00;99.90
19031;DHT22;9648;51.130;13.978;2023-05-02T14:46:53;16.10;99.90
19031;DHT22;9648;51.130;13.978;2023-05-02T14:49:23;16.20;99.90
19031;DHT22;9648;51.130;13.978;2023-05-02T14:51:50;16.20;99.90
19031;DHT22;9648;51.130;13.978;2023-05-02T14:54:17;16.20;99.90
19031;DHT22;9648;51.130;13.978;2023-05-02T14:56:44;16.10;99.90
19031;DHT22;9648;51.130;13.978;2023-05-02T14:59:13;16.00;99.90
19031;DHT22;9648;51.130;13.978;2023-05-02T15:01:43;16.00;99.90
19031;DHT22;9648;51.130;13.978;2023-05-02T15:04:10;16.00;99.90
19031;DHT22;9648;51.130;13.978;2023-05-02T15:06:37;16.00;99.90
19031;DHT22;9648;51.130;13.978;2023-05-02T15:09:04;16.00;99.90
19031;DHT22;9648;51.130;13.978;2023-05-02T15:11:31;15.90;99.90
19031;DHT22;9648;51.130;13.978;2023-05-02T15:13:58;15.80;99.90
19031;DHT22;9648;51.130;13.978;2023-05-02T15:16:26;15.50;99.90
19031;DHT22;9648;51.130;13.978;2023-05-02T15:18:53;15.40;99.90
19031;DHT22;9648;51.130;13.978;2023-05-02T15:21:22;15.20;99.90
19031;DHT22;9648;51.130;13.978;2023-05-02T15:23:49;15.10;99.90
19031;DHT22;9648;51.130;13.978;2023-05-02T15:26:16;14.90;99.90
19031;DHT22;9648;51.130;13.978;2023-05-02T15:28:43;14.70;99.90
19031;DHT22;9648;51.130;13.978;2023-05-02T15:31:10;14.70;99.90
19031;DHT22;9648;51.130;13.978;2023-05-02T15:33:38;14.60;99.90
19031;DHT22;9648;51.130;13.978;2023-05-02T15:36:05;14.60;99.90
19031;DHT22;9648;51.130;13.978;2023-05-02T15:38:32;14.60;99.90
19031;DHT22;9648;51.130;13.978;2023-05-02T15:41:04;14.50;99.90
19031;DHT22;9648;51.130;13.978;2023-05-02T15:43:31;14.60;99.90
19031;DHT22;9648;51.130;13.978;2023-05-02T15:45:59;14.70;99.90